Time;durP1;ratioP1;P1;durP2;ratioP2;P2;SDS_P1;SDS_P2;PMS_P1;PMS_P2;Temp;Humidity;BMP_temperature;BMP_pressure;BME280_temperature;BME280_humidity;BME280_pressure;Samples;Min_cycle;Max_cycle;Signal;HPM_P1;HPM_P2
2022/05/23 00:00:06;;;;;;;4.28;1.40;;;18.00;99.90;;;;;;4972338;28;21208;-30
2022/05/23 00:02:32;;;;;;;1.88;1.25;;;18.10;99.90;;;;;;4973406;28;20089;-31
2022/05/23 00:04:58;;;;;;;7.40;1.27;;;18.10;99.90;;;;;;4972403;28;20027;-32
2022/05/23 00:07:34;;;;;;;4.30;1.40;;;18.00;99.90;;;;;;4974623;28;20387;-33
2022/05/23 00:10:00;;;;;;;3.85;1.17;;;18.00;99.90;;;;;;4963563;28;20090;-29
2022/05/23 00:12:26;;;;;;;5.15;1.35;;;18.00;99.90;;;;;;4970811;28;20029;-47
2022/05/23 00:14:52;;;;;;;4.18;1.30;;;18.00;99.90;;;;;;4974047;28;20058;-35
2022/05/23 00:17:19;;;;;;;4.55;1.52;;;18.00;99.90;;;;;;4973010;28;20031;-35
2022/05/23 00:19:45;;;;;;;3.03;1.60;;;17.80;99.90;;;;;;4971835;28;20038;-35
2022/05/23 00:22:11;;;;;;;7.30;1.83;;;17.80;99.90;;;;;;4971603;28;20286;-38
2022/05/23 00:24:37;;;;;;;6.47;1.40;;;17.80;99.90;;;;;;4973466;28;20035;-38
2022/05/23 00:27:03;;;;;;;2.83;1.30;;;17.80;99.90;;;;;;4972298;28;20049;-37
2022/05/23 00:29:29;;;;;;;5.65;1.40;;;17.80;99.90;;;;;;4973557;28;20582;-38
2022/05/23 00:37:23;;;;;;;2.80;1.30;;;17.70;99.90;;;;;;4974324;28;20526;-37
2022/05/23 00:39:49;;;;;;;3.00;1.50;;;17.70;99.90;;;;;;4972999;28;20019;-38
2022/05/23 00:45:04;;;;;;;3.53;1.45;;;17.60;99.90;;;;;;4973573;28;20411;-37
2022/05/23 00:47:33;;;;;;;4.07;1.45;;;17.50;99.90;;;;;;4976983;28;20042;-38
2022/05/23 00:49:58;;;;;;;4.93;1.67;;;17.40;99.90;;;;;;4976243;28;20490;-37
2022/05/23 00:52:33;;;;;;;2.53;1.50;;;17.40;99.90;;;;;;4975916;28;20138;-38
2022/05/23 00:55:06;;;;;;;3.92;1.80;;;17.30;99.90;;;;;;4977046;28;20035;-34
2022/05/23 00:57:37;;;;;;;4.57;1.50;;;17.30;99.90;;;;;;4975175;28;20105;-30
2022/05/23 01:00:06;;;;;;;1.52;1.10;;;17.20;99.90;;;;;;4974515;28;20031;-30
2022/05/23 01:02:31;;;;;;;8.48;1.52;;;17.20;99.90;;;;;;4975771;28;20034;-29
2022/05/23 01:04:57;;;;;;;7.38;1.33;;;17.20;99.90;;;;;;4976802;28;20491;-31
2022/05/23 01:07:23;;;;;;;4.03;1.30;;;17.10;99.90;;;;;;4977381;28;20035;-32
2022/05/23 01:09:50;;;;;;;4.68;1.60;;;17.10;99.90;;;;;;4976293;28;20031;-30
2022/05/23 01:12:16;;;;;;;5.95;1.45;;;17.10;99.90;;;;;;4974936;28;20058;-33
2022/05/23 01:14:58;;;;;;;4.80;2.08;;;17.20;99.90;;;;;;4976838;28;20047;-33
2022/05/23 01:17:25;;;;;;;4.18;1.50;;;17.10;99.90;;;;;;4977466;28;20062;-32
2022/05/23 01:19:50;;;;;;;4.50;1.65;;;17.10;99.90;;;;;;4975967;28;20507;-33
2022/05/23 01:22:59;;;;;;;3.90;1.40;;;17.10;99.90;;;;;;4975155;28;20031;-31
2022/05/23 01:25:34;;;;;;;4.05;1.38;;;17.10;99.90;;;;;;4977070;28;20507;-32
2022/05/23 01:28:00;;;;;;;5.38;1.25;;;17.00;99.90;;;;;;4975515;28;20497;-32
2022/05/23 01:30:27;;;;;;;3.85;1.35;;;17.00;99.90;;;;;;4976228;28;20467;-30
2022/05/23 01:32:53;;;;;;;2.78;1.45;;;17.00;99.90;;;;;;4977140;28;20463;-31
2022/05/23 01:35:18;;;;;;;6.15;1.35;;;17.00;99.90;;;;;;4974066;28;20098;-28
2022/05/23 01:37:44;;;;;;;3.83;1.23;;;17.00;99.90;;;;;;4974886;28;20023;-32
2022/05/23 01:40:13;;;;;;;8.20;1.88;;;16.90;99.90;;;;;;4973983;28;20027;-37
2022/05/23 01:42:38;;;;;;;6.07;1.83;;;17.00;99.90;;;;;;4976763;28;20512;-39
2022/05/23 01:45:05;;;;;;;3.47;1.45;;;16.90;99.90;;;;;;4975828;28;20026;-30
2022/05/23 01:47:31;;;;;;;4.70;1.60;;;16.90;99.90;;;;;;4974498;28;20034;-28
2022/05/23 01:49:56;;;;;;;1.67;0.95;;;16.90;99.90;;;;;;4974738;28;20023;-30
2022/05/23 01:52:22;;;;;;;5.05;1.70;;;16.90;99.90;;;;;;4975228;28;20117;-47
2022/05/23 01:54:47;;;;;;;3.00;1.88;;;16.90;99.90;;;;;;4974944;28;20121;-30
2022/05/23 01:57:13;;;;;;;5.10;1.60;;;16.80;99.90;;;;;;4973161;28;20059;-34
2022/05/23 02:02:24;;;;;;;6.68;1.42;;;16.80;99.90;;;;;;4976396;28;20078;-35
2022/05/23 02:04:51;;;;;;;3.45;1.65;;;16.70;99.90;;;;;;4970175;28;20778;-37
2022/05/23 02:07:17;;;;;;;3.10;1.33;;;16.70;99.90;;;;;;4975936;28;20526;-34
2022/05/23 02:09:43;;;;;;;1.67;1.35;;;16.70;99.90;;;;;;4974011;28;20027;-32
2022/05/23 02:12:10;;;;;;;5.63;1.50;;;16.70;99.90;;;;;;4975150;28;20070;-29
2022/05/23 02:14:37;;;;;;;2.50;1.30;;;16.80;99.90;;;;;;4973674;28;20050;-29
2022/05/23 02:17:02;;;;;;;5.13;2.47;;;16.70;99.90;;;;;;4976186;28;20482;-30
2022/05/23 02:19:31;;;;;;;2.60;1.33;;;16.80;99.90;;;;;;4973358;28;20038;-30
2022/05/23 02:21:57;;;;;;;1.88;1.30;;;16.80;99.90;;;;;;4974067;28;20035;-32
2022/05/23 02:24:23;;;;;;;1.45;1.20;;;16.80;99.90;;;;;;4975133;28;20049;-29
2022/05/23 02:26:48;;;;;;;4.88;1.65;;;16.80;99.90;;;;;;4976172;28;20029;-31
2022/05/23 02:29:15;;;;;;;7.03;1.75;;;16.80;99.90;;;;;;4974491;28;20031;-35
2022/05/23 02:31:41;;;;;;;2.35;1.40;;;16.70;99.90;;;;;;4975143;28;20387;-37
2022/05/23 02:34:07;;;;;;;2.67;1.30;;;16.70;99.90;;;;;;4973598;28;20030;-36
2022/05/23 02:36:32;;;;;;;3.53;1.65;;;16.70;99.90;;;;;;4974918;28;20027;-36
2022/05/23 02:38:58;;;;;;;7.25;1.40;;;16.60;99.90;;;;;;4972816;28;20035;-31
2022/05/23 02:41:24;;;;;;;5.85;1.88;;;16.60;99.90;;;;;;4974026;28;20022;-34
2022/05/23 02:43:49;;;;;;;5.90;2.38;;;16.60;99.90;;;;;;4975636;28;20031;-33
2022/05/23 02:46:15;;;;;;;2.17;1.48;;;16.60;99.90;;;;;;4973145;28;20541;-30
2022/05/23 02:48:41;;;;;;;3.08;1.45;;;16.60;99.90;;;;;;4974998;28;20054;-28
2022/05/23 02:51:07;;;;;;;2.58;1.25;;;16.50;99.90;;;;;;4974225;28;20549;-32
2022/05/23 02:53:33;;;;;;;2.85;1.20;;;16.50;99.90;;;;;;4975459;28;20054;-32
2022/05/23 02:55:58;;;;;;;6.93;1.65;;;16.40;99.90;;;;;;4974533;28;20062;-29
2022/05/23 02:58:24;;;;;;;5.78;1.35;;;16.40;99.90;;;;;;4972615;28;20026;-34
2022/05/23 03:00:50;;;;;;;6.20;2.55;;;16.30;99.90;;;;;;4974302;28;20502;-32
2022/05/23 03:03:15;;;;;;;6.53;1.98;;;16.30;99.90;;;;;;4975041;28;20027;-32
2022/05/23 03:05:47;;;;;;;6.60;2.20;;;16.30;99.90;;;;;;4974247;28;20023;-32
2022/05/23 03:08:15;;;;;;;3.85;1.50;;;16.20;99.90;;;;;;4966772;28;20035;-32
2022/05/23 03:10:41;;;;;;;7.15;1.42;;;16.20;99.90;;;;;;4973820;28;20030;-33
2022/05/23 03:13:09;;;;;;;2.40;1.52;;;16.10;99.90;;;;;;4975153;28;20479;-32
2022/05/23 03:15:34;;;;;;;1.52;1.42;;;16.10;99.90;;;;;;4975042;28;20042;-32
2022/05/23 03:18:00;;;;;;;6.28;1.92;;;16.10;99.90;;;;;;4974199;28;20046;-31
2022/05/23 03:20:26;;;;;;;9.00;1.75;;;16.10;99.90;;;;;;4973035;28;20113;-33
2022/05/23 03:28:20;;;;;;;2.05;1.33;;;16.00;99.90;;;;;;4973552;28;20088;-33
2022/05/23 03:30:47;;;;;;;8.25;1.77;;;16.00;99.90;;;;;;4972813;28;20031;-33
2022/05/23 03:33:13;;;;;;;3.27;1.77;;;15.90;99.90;;;;;;4972915;28;20019;-30
2022/05/23 03:35:39;;;;;;;3.80;1.55;;;15.90;99.90;;;;;;4974933;28;20023;-32
2022/05/23 03:38:06;;;;;;;1.63;1.15;;;15.90;99.90;;;;;;4973304;28;20729;-33
2022/05/23 03:40:33;;;;;;;2.50;0.90;;;15.90;99.90;;;;;;4974064;28;20534;-30
2022/05/23 03:43:00;;;;;;;5.78;1.70;;;15.80;99.90;;;;;;4974425;28;20073;-31
2022/05/23 03:45:26;;;;;;;6.35;1.65;;;15.80;99.90;;;;;;4973176;28;20031;-31
2022/05/23 03:47:53;;;;;;;3.13;1.55;;;15.80;99.90;;;;;;4973345;28;20058;-30
2022/05/23 03:50:20;;;;;;;3.85;1.58;;;15.80;99.90;;;;;;4973591;28;20089;-30
2022/05/23 03:52:46;;;;;;;3.25;1.75;;;15.70;99.90;;;;;;4974811;28;20098;-33
2022/05/23 03:55:12;;;;;;;5.47;2.03;;;15.70;99.90;;;;;;4973515;28;20065;-28
2022/05/23 03:57:38;;;;;;;5.65;1.92;;;15.70;99.90;;;;;;4972608;28;20041;-31
2022/05/23 04:00:07;;;;;;;4.60;1.60;;;15.70;99.90;;;;;;4971658;28;20030;-33
2022/05/23 04:02:33;;;;;;;4.75;2.22;;;15.60;99.90;;;;;;4972885;28;20027;-28
2022/05/23 04:04:59;;;;;;;1.85;1.60;;;15.60;99.90;;;;;;4974372;28;20030;-33
2022/05/23 04:07:25;;;;;;;5.15;2.03;;;15.50;99.90;;;;;;4971998;28;20063;-37
2022/05/23 04:09:51;;;;;;;5.05;2.00;;;15.60;99.90;;;;;;4973745;28;20069;-31
2022/05/23 04:12:16;;;;;;;4.53;1.92;;;15.60;99.90;;;;;;4972676;28;20502;-33
2022/05/23 04:14:42;;;;;;;3.38;1.77;;;15.50;99.90;;;;;;4974158;28;20050;-33
2022/05/23 04:17:09;;;;;;;3.35;1.73;;;15.50;99.90;;;;;;4973617;28;20031;-32
2022/05/23 04:19:35;;;;;;;9.73;2.30;;;15.40;99.90;;;;;;4970668;28;20042;-30
2022/05/23 04:22:01;;;;;;;4.70;1.75;;;15.40;99.90;;;;;;4976125;28;20030;-33
2022/05/23 04:24:26;;;;;;;4.30;1.90;;;15.50;99.90;;;;;;4978495;28;20022;-30
2022/05/23 04:26:55;;;;;;;6.53;1.95;;;15.40;99.90;;;;;;4977980;28;20031;-32
2022/05/23 04:29:22;;;;;;;7.47;2.72;;;15.40;99.90;;;;;;4974841;28;20118;-36
2022/05/23 04:31:48;;;;;;;4.37;2.17;;;15.40;99.90;;;;;;4977659;28;20031;-28
2022/05/23 04:36:58;;;;;;;9.20;2.33;;;15.40;99.90;;;;;;4976781;28;20462;-32
2022/05/23 04:39:24;;;;;;;4.15;2.67;;;15.40;99.90;;;;;;4977019;28;20050;-31
2022/05/23 04:41:50;;;;;;;11.50;4.03;;;15.40;99.90;;;;;;4977173;28;20031;-30
2022/05/23 04:44:15;;;;;;;4.97;2.33;;;15.50;99.90;;;;;;4977102;28;20023;-31
2022/05/23 04:49:41;;;;;;;4.13;2.05;;;15.50;99.90;;;;;;4978091;28;20054;-32
2022/05/23 04:49:49;;;;;;;4.53;2.03;;;15.50;99.90;;;;;;4976859;28;20093;-33
2022/05/23 04:52:19;;;;;;;3.28;2.10;;;15.50;99.90;;;;;;4976013;28;20026;-32
2022/05/23 04:54:46;;;;;;;6.90;1.92;;;15.50;99.90;;;;;;4974440;28;20030;-30
2022/05/23 04:57:13;;;;;;;3.55;2.33;;;15.50;99.90;;;;;;4973946;28;20463;-31
2022/05/23 04:59:39;;;;;;;4.75;2.75;;;15.50;99.90;;;;;;4976950;28;20104;-31
2022/05/23 05:02:05;;;;;;;5.50;2.33;;;15.50;99.90;;;;;;4976776;28;20033;-29
2022/05/23 05:04:31;;;;;;;2.65;2.22;;;15.60;99.90;;;;;;4976322;28;20026;-34
2022/05/23 05:06:57;;;;;;;10.00;2.30;;;15.60;99.90;;;;;;4976165;28;20074;-37
2022/05/23 05:09:23;;;;;;;5.75;2.17;;;15.70;99.90;;;;;;4977028;28;20395;-30
2022/05/23 05:11:49;;;;;;;3.97;2.20;;;15.70;99.90;;;;;;4975853;28;20471;-35
2022/05/23 05:14:15;;;;;;;7.22;3.05;;;15.80;99.90;;;;;;4973251;28;20072;-33
2022/05/23 05:16:40;;;;;;;6.20;2.60;;;15.90;99.90;;;;;;4977243;28;20031;-36
2022/05/23 05:19:06;;;;;;;7.55;2.80;;;16.00;99.90;;;;;;4977239;28;20030;-36
2022/05/23 05:21:32;;;;;;;6.53;2.60;;;16.00;99.90;;;;;;4976436;28;20023;-38
2022/05/23 05:23:57;;;;;;;8.82;2.90;;;16.20;99.90;;;;;;4974146;28;20038;-35
2022/05/23 05:26:24;;;;;;;7.03;3.03;;;16.20;99.90;;;;;;4977352;28;20483;-37
2022/05/23 05:28:50;;;;;;;4.38;2.25;;;16.20;99.90;;;;;;4975670;28;20062;-36
2022/05/23 05:31:26;;;;;;;3.53;2.03;;;16.30;99.90;;;;;;4976300;28;20113;-37
2022/05/23 05:34:05;;;;;;;4.40;2.55;;;16.40;99.90;;;;;;4976245;28;20534;-36
2022/05/23 05:36:34;;;;;;;6.97;2.40;;;16.50;99.90;;;;;;4975691;28;20030;-36
2022/05/23 05:39:03;;;;;;;8.77;3.28;;;16.50;99.90;;;;;;4974340;28;20027;-36
2022/05/23 05:41:34;;;;;;;6.85;2.50;;;16.50;99.90;;;;;;4968088;28;20026;-36
2022/05/23 05:44:05;;;;;;;12.80;3.25;;;16.60;99.90;;;;;;4975677;28;20545;-37
2022/05/23 05:46:38;;;;;;;6.60;3.15;;;16.60;99.90;;;;;;4975305;28;20030;-36
2022/05/23 05:49:08;;;;;;;7.03;3.53;;;16.60;99.90;;;;;;4975482;28;20057;-36
2022/05/23 05:51:36;;;;;;;6.85;2.97;;;16.60;99.90;;;;;;4974701;28;20387;-36
2022/05/23 05:54:04;;;;;;;3.03;2.20;;;16.70;99.90;;;;;;4974879;28;20494;-36
2022/05/23 05:56:30;;;;;;;7.50;3.50;;;16.80;99.90;;;;;;4975253;28;20019;-36
2022/05/23 05:58:56;;;;;;;5.57;3.25;;;16.90;99.90;;;;;;4976754;28;20027;-31
2022/05/23 06:01:21;;;;;;;14.68;4.25;;;17.00;99.90;;;;;;4975428;28;20031;-37
2022/05/23 06:03:47;;;;;;;7.60;2.95;;;17.10;99.90;;;;;;4967471;28;20019;-36
2022/05/23 06:11:41;;;;;;;7.38;3.13;;;17.70;99.90;;;;;;4975380;28;20037;-38
2022/05/23 06:14:06;;;;;;;8.68;3.45;;;17.90;99.90;;;;;;4975469;28;20110;-36
2022/05/23 06:16:35;;;;;;;9.35;3.72;;;18.00;99.90;;;;;;4972002;28;20134;-37
2022/05/23 06:19:00;;;;;;;5.88;3.38;;;18.10;99.90;;;;;;4976074;28;20527;-36
2022/05/23 06:21:28;;;;;;;7.63;3.60;;;18.40;99.90;;;;;;4974930;28;20106;-36
2022/05/23 06:23:54;;;;;;;5.68;3.53;;;18.40;99.90;;;;;;4975420;28;20493;-36
2022/05/23 06:26:22;;;;;;;9.02;3.10;;;18.30;99.90;;;;;;4975106;28;20529;-36
2022/05/23 06:28:49;;;;;;;10.02;3.65;;;18.20;99.90;;;;;;4975334;28;20023;-37
2022/05/23 06:31:15;;;;;;;4.30;3.45;;;18.20;99.90;;;;;;4974767;28;20388;-38
2022/05/23 06:33:42;;;;;;;7.93;3.55;;;18.10;99.90;;;;;;4973741;28;20029;-36
2022/05/23 06:36:08;;;;;;;6.28;3.70;;;18.20;99.90;;;;;;4974713;28;20117;-37
2022/05/23 06:38:36;;;;;;;6.43;3.40;;;18.20;99.90;;;;;;4974785;28;20080;-38
2022/05/23 06:41:02;;;;;;;11.40;4.25;;;18.30;99.90;;;;;;4974311;28;20035;-37
2022/05/23 06:43:29;;;;;;;10.93;4.53;;;18.40;99.90;;;;;;4972514;28;20114;-35
2022/05/23 06:45:55;;;;;;;11.23;3.17;;;18.50;99.90;;;;;;4970443;28;20043;-36
2022/05/23 06:48:22;;;;;;;10.68;3.92;;;18.60;99.90;;;;;;4967065;28;20037;-36
2022/05/23 06:50:50;;;;;;;8.77;3.92;;;18.60;99.90;;;;;;4970458;28;20058;-36
2022/05/23 06:53:19;;;;;;;8.32;3.70;;;18.70;99.90;;;;;;4974750;28;20031;-36
2022/05/23 06:55:45;;;;;;;8.23;3.25;;;18.70;99.90;;;;;;4974121;28;20478;-35
2022/05/23 06:58:11;;;;;;;6.15;3.67;;;18.80;99.90;;;;;;4978420;28;20027;-37
2022/05/23 07:00:37;;;;;;;4.47;3.75;;;18.90;99.90;;;;;;4970399;28;20090;-35
2022/05/23 07:03:03;;;;;;;9.38;3.53;;;19.00;99.90;;;;;;4971241;28;20439;-35
2022/05/23 07:13:41;;;;;;;6.22;3.58;;;21.00;99.90;;;;;;4973092;28;20058;-36
2022/05/23 07:16:08;;;;;;;5.97;3.63;;;21.50;99.90;;;;;;4973382;28;20035;-38
2022/05/23 07:18:33;;;;;;;8.10;4.13;;;21.20;99.90;;;;;;4970228;28;20105;-35
2022/05/23 07:20:59;;;;;;;3.50;3.20;;;21.00;99.90;;;;;;4972873;28;20106;-37
2022/05/23 07:23:25;;;;;;;9.18;3.33;;;20.80;99.90;;;;;;4964666;28;20039;-35
2022/05/23 07:25:50;;;;;;;9.32;3.55;;;20.60;99.90;;;;;;4972198;28;20026;-37
2022/05/23 07:28:16;;;;;;;11.65;3.55;;;20.40;99.90;;;;;;4963853;28;20066;-31
2022/05/23 07:30:43;;;;;;;6.07;3.60;;;20.30;99.90;;;;;;4955705;28;20148;-35
2022/05/23 07:33:09;;;;;;;4.90;4.03;;;20.20;99.90;;;;;;4971831;28;20394;-30
2022/05/23 07:35:35;;;;;;;5.95;3.00;;;20.10;99.90;;;;;;4971757;28;20080;-31
2022/05/23 07:38:01;;;;;;;6.68;3.60;;;20.00;99.90;;;;;;4973649;28;20019;-32
2022/05/23 07:40:26;;;;;;;12.13;3.72;;;20.00;99.90;;;;;;4974694;28;20082;-32
2022/05/23 07:42:52;;;;;;;9.13;4.00;;;20.00;99.90;;;;;;4970897;28;20497;-36
2022/05/23 07:45:17;;;;;;;4.93;3.20;;;20.00;99.90;;;;;;4973585;28;20031;-30
2022/05/23 07:47:43;;;;;;;6.85;4.25;;;20.00;99.90;;;;;;4968758;28;20023;-31
2022/05/23 07:50:10;;;;;;;8.10;3.65;;;19.90;99.90;;;;;;4968005;28;20051;-31
2022/05/23 07:52:36;;;;;;;4.75;3.70;;;20.00;99.90;;;;;;4972592;28;20062;-32
2022/05/23 08:00:32;;;;;;;9.85;4.28;;;19.90;99.90;;;;;;4971506;28;20080;-37
2022/05/23 08:02:59;;;;;;;10.73;4.63;;;19.90;99.90;;;;;;4972727;28;20041;-33
2022/05/23 08:05:24;;;;;;;6.63;3.75;;;19.90;99.90;;;;;;4974645;28;20026;-35
2022/05/23 08:07:50;;;;;;;8.02;4.00;;;20.00;99.90;;;;;;4972493;28;20110;-36
2022/05/23 08:10:16;;;;;;;12.40;4.97;;;20.00;99.90;;;;;;4972168;28;20496;-30
2022/05/23 08:12:51;;;;;;;8.05;4.03;;;20.10;99.90;;;;;;4971344;28;20049;-33
2022/05/23 08:15:17;;;;;;;9.57;4.10;;;20.20;99.90;;;;;;4974250;28;20486;-48
2022/05/23 08:17:42;;;;;;;10.57;4.25;;;20.30;99.90;;;;;;4972642;28;20046;-38
2022/05/23 08:20:08;;;;;;;10.20;5.30;;;20.30;99.90;;;;;;4972459;28;20471;-37
2022/05/23 08:22:34;;;;;;;10.05;4.85;;;20.50;99.90;;;;;;4971993;28;20065;-37
2022/05/23 08:25:00;;;;;;;11.10;5.13;;;20.60;99.90;;;;;;4974486;28;20498;-37
2022/05/23 08:27:25;;;;;;;8.07;4.57;;;20.60;99.90;;;;;;4973995;28;20038;-35
2022/05/23 08:29:52;;;;;;;9.27;4.00;;;20.60;99.90;;;;;;4969568;28;20030;-36
2022/05/23 08:32:18;;;;;;;8.10;4.35;;;20.70;99.90;;;;;;4971818;28;20491;-36
2022/05/23 08:34:44;;;;;;;6.38;4.07;;;20.80;99.90;;;;;;4973853;28;20026;-37
2022/05/23 08:37:10;;;;;;;9.00;4.47;;;20.90;99.90;;;;;;4974355;28;20023;-39
2022/05/23 08:39:36;;;;;;;8.63;4.93;;;21.10;99.90;;;;;;4970051;28;20034;-37
2022/05/23 08:42:33;;;;;;;9.30;4.70;;;21.30;99.90;;;;;;4973232;28;20023;-36
2022/05/23 08:45:10;;;;;;;6.30;4.72;;;21.50;99.90;;;;;;4965063;28;20498;-36
2022/05/23 08:48:06;;;;;;;6.78;3.95;;;21.80;99.90;;;;;;4969088;28;20038;-36
2022/05/23 08:50:59;;;;;;;8.10;3.97;;;22.20;99.90;;;;;;4955710;28;20031;-37
2022/05/23 08:53:56;;;;;;;7.07;5.22;;;23.10;99.90;;;;;;4968894;28;20050;-37
2022/05/23 08:56:32;;;;;;;7.75;5.50;;;23.80;99.90;;;;;;4970909;28;20034;-37
2022/05/23 08:59:01;;;;;;;5.97;4.30;;;24.00;99.90;;;;;;4969997;28;20574;-38
2022/05/23 09:01:40;;;;;;;7.35;4.30;;;23.70;99.90;;;;;;4971064;28;20424;-38
2022/05/23 09:04:15;;;;;;;10.68;5.18;;;23.40;99.90;;;;;;4973447;28;20110;-38
2022/05/23 09:06:48;;;;;;;8.40;4.65;;;23.00;99.90;;;;;;4974249;28;20391;-38
2022/05/23 09:09:17;;;;;;;4.80;4.25;;;22.90;99.90;;;;;;4975647;28;20027;-38
2022/05/23 09:11:46;;;;;;;7.43;4.57;;;22.60;99.90;;;;;;4974065;28;20034;-36
2022/05/23 09:14:14;;;;;;;12.27;5.07;;;22.50;99.90;;;;;;4972186;28;20105;-37
2022/05/23 09:16:44;;;;;;;10.73;5.13;;;22.50;99.90;;;;;;4970698;28;20078;-38
2022/05/23 09:19:25;;;;;;;6.43;4.90;;;22.60;99.90;;;;;;4970757;28;20082;-37
2022/05/23 09:24:48;;;;;;;6.20;4.68;;;22.40;99.90;;;;;;4958006;28;20046;-38
2022/05/23 09:27:21;;;;;;;9.98;4.72;;;22.20;99.90;;;;;;4966641;28;20061;-37
2022/05/23 09:29:51;;;;;;;6.35;4.47;;;22.00;99.90;;;;;;4974683;28;20533;-29
2022/05/23 09:32:21;;;;;;;7.05;3.95;;;22.00;99.90;;;;;;4976948;28;20524;-31
2022/05/23 09:34:54;;;;;;;10.68;4.93;;;22.00;99.90;;;;;;4969819;28;20027;-29
2022/05/23 09:37:42;;;;;;;16.92;7.05;;;21.90;99.90;;;;;;4977098;28;20026;-30
2022/05/23 09:40:22;;;;;;;11.05;4.80;;;21.80;99.90;;;;;;4976759;28;20089;-28
2022/05/23 09:48:23;;;;;;;7.55;4.82;;;21.60;99.90;;;;;;4973524;28;20386;-29
2022/05/23 09:51:00;;;;;;;6.53;4.45;;;21.50;99.90;;;;;;4973578;28;20045;-32
2022/05/23 09:53:33;;;;;;;5.97;4.60;;;21.50;99.90;;;;;;4973178;28;20489;-33
2022/05/23 09:56:31;;;;;;;7.47;4.18;;;21.50;99.90;;;;;;4966297;28;20101;-30
2022/05/23 09:59:01;;;;;;;8.40;4.97;;;21.60;99.90;;;;;;4968984;28;20356;-31
2022/05/23 10:01:29;;;;;;;5.53;4.32;;;21.70;99.90;;;;;;4956870;28;20491;-31
2022/05/23 10:03:56;;;;;;;8.48;4.82;;;21.70;99.90;;;;;;4968391;28;20054;-33
2022/05/23 10:06:37;;;;;;;12.27;4.67;;;21.70;99.90;;;;;;4966124;28;20523;-29
2022/05/23 10:09:07;;;;;;;13.25;4.32;;;21.80;99.90;;;;;;4974579;28;20035;-30
2022/05/23 10:11:37;;;;;;;9.52;5.05;;;21.80;99.90;;;;;;4970498;28;20031;-29
2022/05/23 10:14:15;;;;;;;16.58;5.45;;;21.80;99.90;;;;;;4980129;28;20375;-31
2022/05/23 10:16:49;;;;;;;6.15;4.35;;;21.80;99.90;;;;;;4975106;28;20043;-29
2022/05/23 10:19:36;;;;;;;9.85;4.63;;;21.70;99.90;;;;;;4978483;28;20023;-30
2022/05/23 10:22:15;;;;;;;7.85;5.30;;;21.70;99.90;;;;;;4959265;28;20050;-32
2022/05/23 10:25:05;;;;;;;13.13;4.68;;;21.70;99.90;;;;;;4974571;28;20487;-28
2022/05/23 10:27:56;;;;;;;6.90;4.82;;;21.60;99.90;;;;;;4975690;28;20455;-30
2022/05/23 10:30:25;;;;;;;11.32;4.93;;;21.60;99.90;;;;;;4975981;28;20035;-28
2022/05/23 10:33:21;;;;;;;7.25;5.20;;;21.60;99.90;;;;;;4973670;28;20483;-31
2022/05/23 10:36:10;;;;;;;8.60;5.40;;;21.60;99.90;;;;;;4974191;28;20098;-30
2022/05/23 10:44:50;;;;;;;11.55;5.70;;;21.50;99.90;;;;;;4973270;28;20030;-31
2022/05/23 10:47:53;;;;;;;10.63;4.53;;;21.60;99.90;;;;;;4962937;28;20310;-39
2022/05/23 10:50:27;;;;;;;6.95;4.85;;;21.70;99.90;;;;;;4974619;28;20475;-33
2022/05/23 10:53:27;;;;;;;12.82;5.65;;;22.10;99.90;;;;;;4975791;28;20121;-31
2022/05/23 10:56:13;;;;;;;15.30;4.75;;;22.30;99.90;;;;;;4972376;28;20018;-28
2022/05/23 10:59:11;;;;;;;7.95;4.63;;;22.40;99.90;;;;;;4972042;28;20090;-38
2022/05/23 11:01:58;;;;;;;7.50;4.65;;;22.40;99.90;;;;;;4971429;28;20027;-38
2022/05/23 11:04:29;;;;;;;4.10;3.70;;;22.30;99.90;;;;;;4967749;28;20118;-69
2022/05/23 11:06:58;;;;;;;7.57;4.65;;;22.30;99.90;;;;;;4981740;28;20035;-38
2022/05/23 11:09:44;;;;;;;6.93;4.40;;;22.30;99.90;;;;;;4972461;28;20038;-37
2022/05/23 11:12:45;;;;;;;9.98;5.05;;;22.50;99.90;;;;;;4970032;28;20222;-33
2022/05/23 11:15:32;;;;;;;6.15;4.57;;;23.00;99.90;;;;;;4927763;28;21222;-38
2022/05/23 11:18:07;;;;;;;;;;;23.50;99.90;;;;;;4974755;28;20511;-39
2022/05/23 11:20:37;;;;;;;8.48;3.55;;;23.90;99.90;;;;;;4974191;28;19910;-38
2022/05/23 11:23:33;;;;;;;6.47;4.25;;;24.10;99.90;;;;;;4966108;28;20027;-38
2022/05/23 11:26:10;;;;;;;6.18;3.63;;;24.20;99.90;;;;;;4965497;28;20039;-41
2022/05/23 11:34:30;;;;;;;10.98;4.13;;;24.70;99.90;;;;;;4964774;28;20042;-37
2022/05/23 11:37:01;;;;;;;12.02;3.10;;;24.90;99.20;;;;;;4970877;28;20019;-36
2022/05/23 11:39:52;;;;;;;7.68;2.60;;;24.80;99.90;;;;;;4974842;28;20062;-37
2022/05/23 11:42:53;;;;;;;5.57;3.00;;;24.80;99.40;;;;;;4967916;28;20038;-37
2022/05/23 11:46:00;;;;;;;6.30;2.95;;;24.80;99.40;;;;;;4971021;28;20031;-60
2022/05/23 11:48:54;;;;;;;7.40;3.15;;;24.50;99.90;;;;;;4968367;28;20074;-38
2022/05/23 11:51:30;;;;;;;6.32;3.30;;;24.20;99.90;;;;;;4960945;28;20035;-35
2022/05/23 11:54:03;;;;;;;4.07;2.95;;;24.20;99.90;;;;;;4971488;28;20391;-38
2022/05/23 11:57:07;;;;;;;8.57;4.00;;;24.10;99.90;;;;;;4972766;28;20058;-36
2022/05/23 11:59:56;;;;;;;7.55;4.15;;;24.20;99.90;;;;;;4967012;28;20030;-38
2022/05/23 12:02:25;;;;;;;5.32;3.22;;;24.30;99.90;;;;;;4962203;28;20089;-37
2022/05/23 12:04:57;;;;;;;4.18;2.67;;;24.20;99.90;;;;;;4965520;28;20093;-35
2022/05/23 12:07:31;;;;;;;4.63;2.63;;;24.10;99.90;;;;;;4966560;28;20454;-38
2022/05/23 12:10:22;;;;;;;4.15;2.53;;;24.00;99.90;;;;;;4966190;28;20038;-33
2022/05/23 12:12:49;;;;;;;6.95;2.45;;;23.90;99.90;;;;;;4971153;28;20181;-37
2022/05/23 12:15:46;;;;;;;3.15;2.85;;;23.80;99.90;;;;;;4970487;28;20130;-39
2022/05/23 12:18:23;;;;;;;4.88;3.75;;;23.90;99.90;;;;;;4973178;28;20504;-38
2022/05/23 12:21:09;;;;;;;;;;;23.80;99.90;;;;;;4974675;28;20026;-38
2022/05/23 12:23:43;;;;;;;5.07;3.45;;;23.80;99.90;;;;;;4959797;28;19910;-67
2022/05/23 12:26:14;;;;;;;5.45;3.72;;;23.70;99.90;;;;;;4972008;28;20027;-74
2022/05/23 12:28:48;;;;;;;3.80;2.53;;;23.60;99.90;;;;;;4972817;28;20027;-62
2022/05/23 12:31:22;;;;;;;3.30;2.70;;;23.50;99.90;;;;;;4975808;28;20502;-62
2022/05/23 12:34:17;;;;;;;2.60;2.40;;;23.40;99.90;;;;;;4973545;28;20038;-75
2022/05/23 12:36:52;;;;;;;3.58;2.83;;;23.10;99.90;;;;;;4971852;28;20463;-38
2022/05/23 12:39:49;;;;;;;4.43;3.40;;;23.00;99.90;;;;;;4972592;28;20023;-31
2022/05/23 12:42:43;;;;;;;4.60;2.92;;;22.90;99.90;;;;;;4971028;28;20475;-35
2022/05/23 12:45:15;;;;;;;8.63;3.28;;;22.70;99.90;;;;;;4976764;28;20031;-38
2022/05/23 12:48:04;;;;;;;11.23;3.67;;;22.60;99.90;;;;;;4974816;28;20482;-38
2022/05/23 12:50:58;;;;;;;9.55;3.55;;;22.50;99.90;;;;;;4975827;28;20037;-37
2022/05/23 12:53:46;;;;;;;6.18;3.15;;;22.60;99.90;;;;;;4972423;28;20375;-38
2022/05/23 12:56:16;;;;;;;4.40;3.03;;;22.50;99.90;;;;;;4975038;28;20049;-37
2022/05/23 12:59:14;;;;;;;5.40;3.75;;;22.40;99.90;;;;;;4975971;28;20058;-37
2022/05/23 13:01:43;;;;;;;6.93;4.35;;;22.40;99.90;;;;;;4975723;28;20043;-37
2022/05/23 13:04:23;;;;;;;9.20;4.85;;;22.50;99.90;;;;;;4972798;28;20055;-38
2022/05/23 13:06:48;;;;;;;8.98;4.78;;;22.50;99.90;;;;;;4970635;28;20475;-37
2022/05/23 13:09:19;;;;;;;7.03;4.20;;;22.40;99.90;;;;;;4974841;28;20093;-39
2022/05/23 13:11:52;;;;;;;5.93;4.60;;;22.50;99.90;;;;;;4976423;28;20054;-38
2022/05/23 13:14:17;;;;;;;5.63;4.63;;;22.40;99.90;;;;;;4978257;28;20027;-38
2022/05/23 13:16:57;;;;;;;9.65;5.20;;;22.40;99.90;;;;;;4969740;28;20506;-37
2022/05/23 13:22:12;;;;;;;9.05;4.80;;;22.40;99.90;;;;;;4977011;28;20058;-34
2022/05/23 13:24:50;;;;;;;7.60;5.68;;;22.40;99.90;;;;;;4980638;28;20029;-29
2022/05/23 13:27:20;;;;;;;;;;;22.40;99.90;;;;;;4984434;28;20038;-28
2022/05/23 13:29:51;;;;;;;12.50;6.18;;;22.40;99.90;;;;;;4996297;28;20255;-33
2022/05/23 13:32:18;;;;;;;12.05;6.80;;;22.30;99.90;;;;;;4977016;28;20142;-27
2022/05/23 13:34:45;;;;;;;10.20;6.90;;;22.20;99.90;;;;;;4970456;28;20494;-37
2022/05/23 13:37:37;;;;;;;15.43;7.90;;;21.90;99.90;;;;;;4968692;28;20450;-31
2022/05/23 13:40:18;;;;;;;12.85;7.72;;;21.60;99.90;;;;;;4972860;28;20027;-29
2022/05/23 13:42:44;;;;;;;23.60;8.82;;;21.20;99.90;;;;;;4982047;28;20058;-33
2022/05/23 13:45:16;;;;;;;17.20;8.20;;;20.90;99.90;;;;;;4980575;28;20371;-31
2022/05/23 13:47:51;;;;;;;15.68;7.72;;;20.60;99.90;;;;;;4976252;28;20277;-31
2022/05/23 13:53:14;;;;;;;19.75;9.43;;;20.20;99.90;;;;;;4975471;28;20117;-35
2022/05/23 13:55:46;;;;;;;17.45;9.40;;;20.10;99.90;;;;;;4967247;28;20379;-31
2022/05/23 13:58:40;;;;;;;21.90;10.30;;;19.90;99.90;;;;;;4974543;28;20029;-32
2022/05/23 14:01:14;;;;;;;18.88;10.13;;;19.70;99.90;;;;;;4972930;28;20047;-31
2022/05/23 14:03:43;;;;;;;18.80;10.05;;;19.40;99.90;;;;;;4976481;28;20537;-32
2022/05/23 14:06:15;;;;;;;17.52;9.95;;;19.20;99.90;;;;;;4974886;28;20081;-29
2022/05/23 14:08:50;;;;;;;14.65;10.13;;;18.90;99.90;;;;;;4972514;28;20026;-31
2022/05/23 14:11:23;;;;;;;17.42;10.25;;;18.50;99.90;;;;;;4983269;28;20031;-31